Map

Track Data

SID SEASON NUMBER BASIN SUBBASIN NAME ISO_TIME NATURE LAT LON WMO_WIND WMO_PRES WMO_AGENCY TRACK_TYPE DIST2LAND LANDFALL IFLAG USA_AGENCY USA_ATCF_ID USA_LAT USA_LON USA_RECORD USA_STATUS USA_WIND USA_PRES USA_SSHS USA_R34_NE USA_R34_SE USA_R34_SW USA_R34_NW USA_R50_NE USA_R50_SE USA_R50_SW USA_R50_NW USA_R64_NE USA_R64_SE USA_R64_SW USA_R64_NW USA_POCI USA_ROCI USA_RMW USA_EYE TOKYO_LAT TOKYO_LON TOKYO_GRADE TOKYO_WIND TOKYO_PRES TOKYO_R50_DIR TOKYO_R50_LONG TOKYO_R50_SHORT TOKYO_R30_DIR TOKYO_R30_LONG TOKYO_R30_SHORT TOKYO_LAND CMA_LAT CMA_LON CMA_CAT CMA_WIND CMA_PRES HKO_LAT HKO_LON HKO_CAT HKO_WIND HKO_PRES NEWDELHI_LAT NEWDELHI_LON NEWDELHI_GRADE NEWDELHI_WIND NEWDELHI_PRES NEWDELHI_CI NEWDELHI_DP NEWDELHI_POCI REUNION_LAT REUNION_LON REUNION_TYPE REUNION_WIND REUNION_PRES REUNION_TNUM REUNION_CI REUNION_RMW REUNION_R34_NE REUNION_R34_SE REUNION_R34_SW REUNION_R34_NW REUNION_R50_NE REUNION_R50_SE REUNION_R50_SW REUNION_R50_NW REUNION_R64_NE REUNION_R64_SE REUNION_R64_SW REUNION_R64_NW BOM_LAT BOM_LON BOM_TYPE BOM_WIND BOM_PRES BOM_TNUM BOM_CI BOM_RMW BOM_R34_NE BOM_R34_SE BOM_R34_SW BOM_R34_NW BOM_R50_NE BOM_R50_SE BOM_R50_SW BOM_R50_NW BOM_R64_NE BOM_R64_SE BOM_R64_SW BOM_R64_NW BOM_ROCI BOM_POCI BOM_EYE BOM_POS_METHOD BOM_PRES_METHOD NADI_LAT NADI_LON NADI_CAT NADI_WIND NADI_PRES WELLINGTON_LAT WELLINGTON_LON WELLINGTON_WIND WELLINGTON_PRES DS824_LAT DS824_LON DS824_STAGE DS824_WIND DS824_PRES TD9636_LAT TD9636_LON TD9636_STAGE TD9636_WIND TD9636_PRES TD9635_LAT TD9635_LON TD9635_WIND TD9635_PRES TD9635_ROCI NEUMANN_LAT NEUMANN_LON NEUMANN_CLASS NEUMANN_WIND NEUMANN_PRES MLC_LAT MLC_LON MLC_CLASS MLC_WIND MLC_PRES USA_GUST BOM_GUST BOM_GUST_PER REUNION_GUST REUNION_GUST_PER USA_SEAHGT USA_SEARAD_NE USA_SEARAD_SE USA_SEARAD_SW USA_SEARAD_NW STORM_SPEED STORM_DIR
1861305S10085 1862 34 SI MM NOT_NAMED 1861-10-31 18:00:00 NR -9.70000 85.2000 main 1761 1761 __________O___ -1 -9.70000 85.2000 7 5 256
1861305S10085 1862 34 SI MM NOT_NAMED 1861-10-31 21:00:00 NR -9.75760 84.9718 main 1785 1785 __________P___ -1 -9.75760 84.9718 7 5 256
1861305S10085 1862 34 SI MM NOT_NAMED 1861-11-01 00:00:00 NR -9.82214 84.7148 main 1814 1814 __________P___ -1 -9.82214 84.7148 7 6 256
1861305S10085 1862 34 SI MM NOT_NAMED 1861-11-01 03:00:00 NR -9.90064 84.4005 main 1819 1814 __________P___ -1 -9.90064 84.4005 7 7 256
1861305S10085 1862 34 SI MM NOT_NAMED 1861-11-01 06:00:00 NR -10.0000 84.0000 main 1821 1816 __________O___ -1 -10.0000 84.0000 7 9 256
1861305S10085 1862 34 SI MM NOT_NAMED 1861-11-01 09:00:00 NR -10.1247 83.4960 main 1821 1819 __________P___ -1 -10.1247 83.4960 7 11 256
1861305S10085 1862 34 SI MM NOT_NAMED 1861-11-01 12:00:00 NR -10.2705 82.9175 main 1833 1828 __________P___ -1 -10.2705 82.9175 7 12 255
1861305S10085 1862 34 SI MM NOT_NAMED 1861-11-01 15:00:00 NR -10.4309 82.3053 main 1836 1834 __________P___ -1 -10.4309 82.3053 7 12 255
1861305S10085 1862 34 SI MM NOT_NAMED 1861-11-01 18:00:00 NR -10.6000 81.7000 main 1852 1852 __________O___ -1 -10.6000 81.7000 7 11 253
1861305S10085 1862 34 SI MM NOT_NAMED 1861-11-01 21:00:00 NR -10.7629 81.1927 main 1872 1871 __________P___ -1 -10.7629 81.1927 7 10 251
1861305S10085 1862 34 SI MM NOT_NAMED 1861-11-02 00:00:00 NR -10.9338 80.6944 main 1882 1882 __________P___ -1 -10.9338 80.6944 7 11 251
1861305S10085 1862 34 SI MM NOT_NAMED 1861-11-02 03:00:00 NR -11.1128 80.1739 main 1905 1905 __________P___ -1 -11.1128 80.1739 7 11 251
1861305S10085 1862 34 SI MM NOT_NAMED 1861-11-02 06:00:00 NR -11.3000 79.6000 main 1930 1930 __________O___ -1 -11.3000 79.6000 7 13 253
1861305S10085 1862 34 SI MM NOT_NAMED 1861-11-02 09:00:00 NR -11.4891 78.9162 main 1958 1958 __________P___ -1 -11.4891 78.9162 7 14 255
1861305S10085 1862 34 SI MM NOT_NAMED 1861-11-02 12:00:00 NR -11.6855 78.1799 main 1989 1989 __________P___ -1 -11.6855 78.1799 7 15 255
1861305S10085 1862 34 SI MM NOT_NAMED 1861-11-02 15:00:00 NR -11.8891 77.4286 main 2025 2025 __________P___ -1 -11.8891 77.4286 7 15 254
1861305S10085 1862 34 SI MM NOT_NAMED 1861-11-02 18:00:00 NR -12.1000 76.7000 main 2062 2062 __________O___ -1 -12.1000 76.7000 7 14 253
1861305S10085 1862 34 SI MM NOT_NAMED 1861-11-02 21:00:00 NR -12.3184 76.0230 main 2101 2068 __________P___ -1 -12.3184 76.0230 7 14 251
1861305S10085 1862 34 SI MM NOT_NAMED 1861-11-03 00:00:00 NR -12.5428 75.3909 main 2068 1995 __________P___ -1 -12.5428 75.3909 7 13 249
1861305S10085 1862 34 SI MM NOT_NAMED 1861-11-03 03:00:00 NR -12.7708 74.7883 main 1995 1927 __________P___ -1 -12.7708 74.7883 7 13 249
1861305S10085 1862 34 SI MM NOT_NAMED 1861-11-03 06:00:00 NR -13.0000 74.2000 main 1927 __________O___ -1 -13.0000 74.2000 7 12 248

About IBTrACS Database

This database is a web-friendly format of International Best Track Archive for Climate Stewardship (IBTrACS), a global best track data archive curated by NOAA dating back to 1842.

Updated: 2021-10-08